Time;durP1;ratioP1;P1;durP2;ratioP2;P2;SDS_P1;SDS_P2;PMS_P1;PMS_P2;Temp;Humidity;BMP_temperature;BMP_pressure;BME280_temperature;BME280_humidity;BME280_pressure;Samples;Min_cycle;Max_cycle;Signal;HPM_P1;HPM_P2
2023/12/21 15:51:31;;;;;;;11.93;2.37;;;12.90;99.90;;;;;;5109446;27;21190;-79
2023/12/21 15:53:57;;;;;;;16.50;2.60;;;12.90;99.90;;;;;;5108494;28;20172;-80
2023/12/21 15:56:22;;;;;;;14.50;2.67;;;12.80;1.00;;;;;;5107872;28;20257;-80
2023/12/21 15:58:48;;;;;;;21.00;5.83;;;12.80;1.00;;;;;;5108932;28;20663;-81
2023/12/21 16:01:14;;;;;;;14.17;3.27;;;12.80;1.00;;;;;;5099933;28;20589;-80
2023/12/21 16:03:40;;;;;;;18.73;4.23;;;12.80;1.00;;;;;;5098376;28;20211;-81
2023/12/21 16:06:06;;;;;;;25.40;6.17;;;12.80;1.00;;;;;;5107099;28;20690;-79
2023/12/21 16:08:32;;;;;;;17.97;3.40;;;12.80;1.00;;;;;;5105982;28;20179;-80
2023/12/21 16:10:59;;;;;;;17.53;4.10;;;12.70;1.00;;;;;;5109063;28;20203;-80
2023/12/21 16:13:24;;;;;;;26.23;9.03;;;12.70;1.00;;;;;;5090859;28;20207;-81
2023/12/21 16:15:50;;;;;;;19.93;4.10;;;12.80;1.00;;;;;;5110480;28;20168;-79
2023/12/21 16:18:16;;;;;;;24.07;4.80;;;12.70;1.00;;;;;;5113444;28;20176;-79
2023/12/21 16:20:42;;;;;;;16.57;3.60;;;12.70;17.30;;;;;;5114192;28;20167;-79
2023/12/21 16:23:08;;;;;;;16.20;2.77;;;12.70;90.00;;;;;;5111801;28;20539;-80
2023/12/21 16:25:34;;;;;;;14.87;3.10;;;12.70;99.90;;;;;;5108954;28;20201;-80
2023/12/21 16:27:59;;;;;;;15.80;2.73;;;12.70;99.90;;;;;;5116516;28;20182;-85
2023/12/21 16:30:25;;;;;;;15.90;3.30;;;12.70;99.90;;;;;;5114231;27;20574;-82
2023/12/21 16:32:53;;;;;;;12.27;2.60;;;12.70;99.90;;;;;;5107995;28;20648;-81
2023/12/21 16:35:18;;;;;;;17.23;3.17;;;12.60;99.90;;;;;;5112637;27;20633;-77
2023/12/21 16:37:46;;;;;;;13.33;2.97;;;12.60;99.90;;;;;;5109544;28;20215;-78
2023/12/21 16:40:14;;;;;;;23.47;4.47;;;12.60;99.90;;;;;;5110509;28;20199;-78
2023/12/21 16:42:40;;;;;;;16.53;3.97;;;12.40;99.90;;;;;;5111507;28;20178;-80
2023/12/21 16:45:06;;;;;;;19.70;3.33;;;12.80;1.00;;;;;;5111439;28;20489;-78
2023/12/21 16:47:32;;;;;;;16.30;4.17;;;12.60;1.00;;;;;;5108159;28;20239;-78
2023/12/21 16:49:58;;;;;;;16.53;3.37;;;12.60;1.00;;;;;;5106049;28;20317;-79
2023/12/21 16:52:23;;;;;;;15.00;3.03;;;12.70;1.00;;;;;;5094910;28;20551;-79
2023/12/21 16:54:49;;;;;;;9.50;1.93;;;12.60;1.00;;;;;;5108247;28;20616;-79
2023/12/21 16:57:15;;;;;;;14.27;2.37;;;12.70;1.00;;;;;;5123615;28;20199;-78
2023/12/21 16:59:41;;;;;;;10.33;2.77;;;12.70;1.00;;;;;;5113567;28;20168;-77
2023/12/21 17:02:07;;;;;;;11.77;2.40;;;12.80;1.00;;;;;;5108229;28;20528;-79
2023/12/21 17:04:33;;;;;;;18.13;8.20;;;12.70;1.00;;;;;;5094410;28;20618;-78
2023/12/21 17:06:59;;;;;;;17.30;4.20;;;12.70;1.00;;;;;;5093943;28;20305;-78
2023/12/21 17:09:24;;;;;;;7.27;1.90;;;12.70;1.00;;;;;;5082727;28;20224;-79
2023/12/21 17:11:50;;;;;;;10.57;1.80;;;12.60;1.00;;;;;;5074731;28;20200;-80
2023/12/21 17:14:17;;;;;;;9.60;1.70;;;12.60;1.00;;;;;;5077259;28;20175;-78
2023/12/21 17:16:42;;;;;;;13.53;2.50;;;12.60;1.00;;;;;;5083754;28;20184;-77
2023/12/21 17:19:08;;;;;;;16.80;2.43;;;12.60;1.00;;;;;;5102546;28;20171;-77
2023/12/21 17:21:34;;;;;;;11.23;2.43;;;12.60;1.00;;;;;;5098768;28;20596;-77
2023/12/21 17:24:02;;;;;;;7.93;2.17;;;12.60;1.00;;;;;;5097615;28;20179;-78
2023/12/21 17:26:27;;;;;;;7.17;1.97;;;12.50;1.00;;;;;;5094113;28;20175;-79
2023/12/21 17:28:53;;;;;;;15.53;2.67;;;12.50;1.00;;;;;;5095062;28;20599;-79
2023/12/21 17:31:19;;;;;;;10.37;2.43;;;12.40;1.00;;;;;;5093606;28;20314;-79
2023/12/21 17:33:45;;;;;;;15.47;3.57;;;12.50;1.00;;;;;;5093315;28;20643;-82
2023/12/21 17:36:11;;;;;;;13.80;2.93;;;12.50;99.90;;;;;;5095093;28;20171;-80
2023/12/21 17:38:40;;;;;;;8.60;1.87;;;12.50;99.90;;;;;;5092792;28;20183;-81
2023/12/21 17:41:13;;;;;;;10.77;2.13;;;12.50;99.90;;;;;;5103690;28;20216;-81
2023/12/21 17:43:43;;;;;;;12.67;2.33;;;12.40;99.90;;;;;;5116910;28;20543;-82
2023/12/21 17:46:14;;;;;;;16.27;2.30;;;12.40;99.90;;;;;;5106823;28;20190;-80
2023/12/21 17:48:40;;;;;;;14.50;2.40;;;12.40;99.90;;;;;;5095119;28;20229;-79
2023/12/21 17:51:10;;;;;;;15.30;2.40;;;12.40;87.10;;;;;;5096321;28;20270;-76
2023/12/21 17:53:35;;;;;;;11.97;2.70;;;12.40;99.90;;;;;;5097950;28;20302;-81
2023/12/21 17:56:01;;;;;;;11.77;2.40;;;12.40;99.90;;;;;;5110872;28;20179;-77
2023/12/21 17:58:27;;;;;;;11.27;3.33;;;12.40;76.10;;;;;;5116427;28;20195;-78
2023/12/21 18:00:53;;;;;;;16.20;4.13;;;12.40;9.30;;;;;;5116504;28;20171;-77
2023/12/21 18:03:20;;;;;;;8.23;2.27;;;12.40;99.90;;;;;;5116925;28;20190;-77
2023/12/21 18:05:45;;;;;;;21.47;5.00;;;12.30;93.30;;;;;;5117041;28;20207;-77
2023/12/21 18:08:13;;;;;;;16.80;3.67;;;12.30;99.90;;;;;;5111074;28;20186;-79
2023/12/21 18:10:39;;;;;;;15.83;4.07;;;12.40;99.70;;;;;;5113716;28;20561;-76
2023/12/21 18:13:04;;;;;;;9.20;2.33;;;12.20;65.90;;;;;;5106754;28;20179;-75
2023/12/21 18:15:31;;;;;;;15.00;2.60;;;12.30;1.00;;;;;;5092834;28;20179;-78
2023/12/21 18:17:57;;;;;;;7.03;2.40;;;12.30;1.00;;;;;;5098749;28;20168;-78
2023/12/21 18:20:23;;;;;;;14.53;2.67;;;12.30;1.00;;;;;;5100473;28;20189;-77
2023/12/21 18:22:50;;;;;;;11.53;2.43;;;12.30;1.00;;;;;;5113514;28;20175;-78
2023/12/21 18:25:17;;;;;;;12.60;2.57;;;12.30;1.00;;;;;;5097810;28;20182;-78
2023/12/21 18:27:43;;;;;;;14.03;2.00;;;12.30;1.00;;;;;;5103676;28;20254;-80
2023/12/21 18:30:09;;;;;;;17.60;4.53;;;12.20;1.00;;;;;;5115971;28;20218;-78
2023/12/21 18:32:36;;;;;;;15.57;3.57;;;12.20;1.00;;;;;;5118100;28;20171;-80
2023/12/21 18:35:03;;;;;;;13.67;2.70;;;12.20;1.00;;;;;;5115708;28;20207;-81
2023/12/21 18:37:28;;;;;;;14.47;3.00;;;12.20;11.50;;;;;;5111275;28;20250;-85
2023/12/21 18:39:54;;;;;;;15.23;2.60;;;12.20;1.00;;;;;;5112218;28;20187;-81
2023/12/21 18:42:20;;;;;;;9.40;2.40;;;12.20;1.00;;;;;;5120700;28;20189;-82
2023/12/21 18:44:46;;;;;;;14.83;2.80;;;12.10;1.00;;;;;;5121110;28;20207;-81
2023/12/21 18:47:12;;;;;;;17.03;2.70;;;12.10;24.70;;;;;;5121272;28;20205;-80
2023/12/21 18:49:37;;;;;;;14.33;3.00;;;12.10;20.60;;;;;;5109125;28;20686;-81
2023/12/21 18:52:04;;;;;;;17.63;2.70;;;12.10;69.40;;;;;;5095490;28;20323;-79
2023/12/21 18:54:29;;;;;;;10.50;2.40;;;12.10;1.00;;;;;;5095135;28;20184;-81
2023/12/21 18:56:56;;;;;;;12.53;2.80;;;12.10;1.00;;;;;;5093221;28;20183;-82
2023/12/21 18:59:22;;;;;;;18.20;2.87;;;12.10;1.00;;;;;;5092355;28;20187;-81
2023/12/21 19:01:47;;;;;;;15.27;2.77;;;12.00;1.00;;;;;;5091571;28;20172;-79
2023/12/21 19:04:15;;;;;;;11.60;2.63;;;12.00;1.00;;;;;;5092241;28;20168;-79
2023/12/21 19:06:41;;;;;;;13.93;2.77;;;12.00;1.00;;;;;;5092618;28;20653;-78
2023/12/21 19:09:07;;;;;;;12.80;2.77;;;12.00;1.00;;;;;;5097650;28;20175;-79
2023/12/21 19:11:33;;;;;;;12.57;2.30;;;12.00;60.90;;;;;;5111593;28;20182;-80
2023/12/21 19:13:59;;;;;;;19.97;4.37;;;12.00;99.90;;;;;;5112375;28;20270;-80
2023/12/21 19:16:24;;;;;;;16.67;4.10;;;12.00;99.90;;;;;;5091016;28;20176;-79
2023/12/21 19:18:50;;;;;;;17.17;3.83;;;11.90;99.90;;;;;;5107730;28;20179;-82
2023/12/21 19:21:16;;;;;;;17.33;5.03;;;12.00;99.90;;;;;;5095838;28;20176;-80
2023/12/21 19:23:42;;;;;;;16.90;4.17;;;11.90;99.90;;;;;;5092803;28;20176;-79
2023/12/21 19:26:08;;;;;;;16.53;3.30;;;11.90;99.90;;;;;;5092943;28;20172;-79
2023/12/21 19:28:34;;;;;;;20.40;3.40;;;12.00;1.00;;;;;;5092215;28;20532;-79
2023/12/21 19:31:06;;;;;;;15.63;2.53;;;11.70;1.00;;;;;;5106078;28;20215;-81
2023/12/21 19:33:32;;;;;;;12.13;2.50;;;11.90;1.00;;;;;;5101974;28;20206;-76
2023/12/21 19:35:58;;;;;;;15.40;3.20;;;11.90;1.00;;;;;;5093222;28;20233;-80
2023/12/21 19:38:24;;;;;;;13.27;2.33;;;11.90;1.00;;;;;;5094659;28;20160;-78
2023/12/21 19:40:51;;;;;;;20.77;3.13;;;11.80;1.00;;;;;;5103815;28;20634;-81
2023/12/21 19:43:16;;;;;;;12.40;2.30;;;11.90;1.00;;;;;;5117846;28;20163;-80
2023/12/21 19:45:42;;;;;;;17.87;3.10;;;11.80;1.00;;;;;;5100003;28;20612;-81
2023/12/21 19:48:08;;;;;;;23.20;3.30;;;11.90;1.00;;;;;;5099936;28;20175;-81
2023/12/21 19:50:39;;;;;;;18.07;3.10;;;11.80;1.00;;;;;;5095512;28;20219;-79
2023/12/21 19:53:05;;;;;;;15.03;3.23;;;11.90;1.00;;;;;;5110221;28;20171;-78
2023/12/21 19:55:32;;;;;;;19.33;2.70;;;11.80;1.00;;;;;;5113384;28;20228;-81
2023/12/21 19:57:58;;;;;;;13.80;2.93;;;11.90;1.00;;;;;;5113202;28;20167;-81
2023/12/21 20:00:23;;;;;;;16.97;3.43;;;11.90;1.00;;;;;;5114478;28;20220;-82
2023/12/21 20:02:51;;;;;;;22.17;3.40;;;11.90;1.00;;;;;;5105908;28;20259;-79
2023/12/21 20:05:17;;;;;;;17.47;3.50;;;11.90;1.00;;;;;;5097058;28;20187;-81
2023/12/21 20:07:43;;;;;;;23.67;3.40;;;11.90;99.90;;;;;;5095392;28;20180;-81
2023/12/21 20:10:09;;;;;;;16.00;3.20;;;12.00;99.90;;;;;;5112576;28;20847;-79
2023/12/21 20:12:34;;;;;;;14.47;3.47;;;11.90;1.00;;;;;;5079571;28;20199;-80
2023/12/21 20:15:00;;;;;;;13.37;3.47;;;11.80;1.00;;;;;;5104709;28;20197;-79
2023/12/21 20:17:26;;;;;;;20.53;3.27;;;11.70;1.00;;;;;;5100281;28;20706;-78
2023/12/21 20:19:53;;;;;;;19.23;3.20;;;11.70;31.40;;;;;;5093916;28;20195;-79
2023/12/21 20:22:19;;;;;;;16.23;3.10;;;11.60;99.90;;;;;;5105672;28;20241;-82
2023/12/21 20:24:45;;;;;;;15.17;2.73;;;11.40;99.90;;;;;;5122523;28;20179;-78
2023/12/21 20:27:10;;;;;;;13.60;2.60;;;11.40;99.90;;;;;;5101775;28;20186;-80
2023/12/21 20:29:36;;;;;;;18.07;3.37;;;11.30;99.90;;;;;;5123147;28;20197;-78
2023/12/21 20:32:02;;;;;;;18.40;3.13;;;11.30;99.90;;;;;;5099350;28;20569;-79
2023/12/21 20:34:27;;;;;;;14.70;3.03;;;11.30;99.90;;;;;;5110962;28;20625;-82
2023/12/21 20:36:53;;;;;;;17.63;3.97;;;11.20;99.90;;;;;;5112376;28;20544;-81
2023/12/21 20:39:19;;;;;;;16.37;2.73;;;11.30;99.90;;;;;;5100057;28;20618;-79
2023/12/21 20:41:45;;;;;;;14.03;2.70;;;11.20;99.90;;;;;;5105819;28;20171;-81
2023/12/21 20:44:11;;;;;;;15.20;2.90;;;11.20;99.90;;;;;;5116782;28;20172;-84
2023/12/21 20:46:37;;;;;;;15.03;2.80;;;11.20;99.90;;;;;;5115431;28;20670;-78
2023/12/21 20:49:03;;;;;;;11.33;2.60;;;11.20;99.90;;;;;;5111349;28;20255;-82
2023/12/21 20:51:28;;;;;;;12.17;2.30;;;11.20;99.90;;;;;;5100667;28;20310;-81
2023/12/21 20:53:54;;;;;;;11.27;2.27;;;11.30;99.90;;;;;;5107571;28;20198;-81
2023/12/21 20:56:22;;;;;;;14.63;2.67;;;11.30;99.90;;;;;;5076358;28;20795;-83
2023/12/21 20:59:22;;;;;;;13.97;2.20;;;11.40;85.00;;;;;;5113900;28;20186;-80
2023/12/21 21:01:45;;;;;;;14.97;2.60;;;11.40;1.00;;;;;;5101716;28;20179;-81
2023/12/21 21:04:11;;;;;;;13.13;2.20;;;11.50;1.00;;;;;;5108659;28;20217;-81
2023/12/21 21:06:38;;;;;;;15.37;2.57;;;11.60;1.00;;;;;;5104779;28;20167;-83
2023/12/21 21:09:08;;;;;;;14.53;2.40;;;11.50;1.00;;;;;;5106444;28;20187;-84
2023/12/21 21:11:36;;;;;;;14.17;2.97;;;11.60;1.00;;;;;;5105149;28;20271;-82
2023/12/21 21:14:02;;;;;;;12.83;2.40;;;11.60;1.00;;;;;;5105568;28;20316;-83
2023/12/21 21:16:28;;;;;;;16.73;2.30;;;11.70;1.00;;;;;;5097089;28;20203;-83
2023/12/21 21:18:54;;;;;;;13.20;2.43;;;11.60;1.00;;;;;;5106411;28;20183;-80
2023/12/21 21:21:19;;;;;;;14.20;2.50;;;11.70;1.00;;;;;;5110026;28;20171;-82
2023/12/21 21:23:47;;;;;;;14.07;2.30;;;11.70;99.90;;;;;;5115321;28;20175;-79
2023/12/21 21:26:13;;;;;;;19.80;2.37;;;11.80;99.90;;;;;;5113386;28;20167;-82
2023/12/21 21:28:39;;;;;;;19.33;2.80;;;11.80;1.00;;;;;;5113073;28;20645;-81
2023/12/21 21:31:05;;;;;;;14.40;2.50;;;11.70;1.00;;;;;;5099013;28;20260;-79
2023/12/21 21:33:31;;;;;;;11.83;2.17;;;11.80;1.00;;;;;;5094655;28;20638;-82
2023/12/21 21:35:56;;;;;;;9.07;1.90;;;11.90;99.90;;;;;;5093244;28;20278;-81
2023/12/21 21:38:22;;;;;;;11.07;2.20;;;11.90;99.90;;;;;;5093678;28;20668;-83
2023/12/21 21:40:48;;;;;;;14.33;2.40;;;11.90;99.90;;;;;;5095745;28;20171;-79
2023/12/21 21:43:13;;;;;;;14.30;2.20;;;11.80;1.00;;;;;;5092810;28;20172;-79
2023/12/21 21:45:39;;;;;;;7.33;2.10;;;11.90;1.00;;;;;;5103048;28;20574;-81
2023/12/21 21:48:05;;;;;;;12.83;2.20;;;11.90;1.00;;;;;;5113604;28;20183;-81
2023/12/21 21:50:31;;;;;;;15.87;3.87;;;11.90;1.00;;;;;;5093305;28;20571;-81
2023/12/21 21:52:56;;;;;;;12.57;2.60;;;11.90;1.00;;;;;;5094694;28;20176;-81
2023/12/21 21:55:22;;;;;;;11.20;2.30;;;11.90;1.00;;;;;;5093087;28;20179;-83
2023/12/21 21:57:48;;;;;;;11.63;2.67;;;12.00;1.00;;;;;;5093254;28;20167;-82
2023/12/21 22:00:14;;;;;;;9.67;2.57;;;11.90;1.00;;;;;;5093435;28;20221;-83
2023/12/21 22:02:39;;;;;;;13.63;2.27;;;11.90;1.00;;;;;;5096521;28;20175;-82
2023/12/21 22:05:05;;;;;;;12.37;2.03;;;11.80;1.00;;;;;;5101261;28;20183;-83
2023/12/21 22:07:32;;;;;;;14.13;2.50;;;11.90;1.00;;;;;;5090307;28;20164;-82
2023/12/21 22:09:57;;;;;;;15.10;2.50;;;11.90;1.00;;;;;;5075289;28;20253;-82
2023/12/21 22:12:23;;;;;;;10.17;1.90;;;11.90;1.00;;;;;;5106506;28;20195;-82
2023/12/21 22:14:52;;;;;;;9.30;2.10;;;11.90;14.00;;;;;;5104730;28;20172;-80
2023/12/21 22:17:18;;;;;;;16.87;2.37;;;11.90;75.10;;;;;;5102253;28;20891;-77
2023/12/21 22:19:43;;;;;;;10.30;1.80;;;11.80;99.90;;;;;;5096862;28;20270;-79
2023/12/21 22:22:09;;;;;;;12.53;2.30;;;11.80;99.90;;;;;;5097877;28;20176;-81
2023/12/21 22:24:34;;;;;;;15.37;2.30;;;11.80;99.90;;;;;;5095757;28;20172;-78
2023/12/21 22:27:01;;;;;;;15.30;2.30;;;11.80;99.90;;;;;;5094345;28;20176;-79
2023/12/21 22:29:27;;;;;;;12.70;2.93;;;11.70;99.90;;;;;;5092885;28;20179;-80
2023/12/21 22:31:53;;;;;;;12.17;2.80;;;11.70;99.90;;;;;;5096130;28;20195;-81
2023/12/21 22:34:18;;;;;;;11.07;2.30;;;11.70;99.90;;;;;;5094585;28;20179;-81
2023/12/21 22:36:44;;;;;;;14.77;2.30;;;11.70;99.90;;;;;;5114286;28;20680;-81
2023/12/21 22:39:10;;;;;;;16.50;2.67;;;11.70;99.90;;;;;;5113560;28;20171;-81
2023/12/21 22:41:35;;;;;;;11.57;2.77;;;11.70;99.90;;;;;;5112736;28;20167;-81
2023/12/21 22:44:01;;;;;;;13.03;2.37;;;11.60;99.90;;;;;;5121628;28;20231;-80
2023/12/21 22:46:27;;;;;;;15.50;2.70;;;11.70;99.90;;;;;;5116411;28;20188;-81
